Terminal Aerodrome Forecast
Issued by NWS

Home | Current Version | Previous Version | Text Only | Print | Product List | Glossary On
Versions: 1 2 3 4 5 6 7 8 9 10 11 12 13 14 15 16 17 18 19 20 21 22 23 24 25 26 27 28 29 30 31 32 33 34 35 36 37 38 39 40 41 42 43 44 45 46 47 48 49 50
000
FTUS45 KBOU 291907 AAA
TAFBJC
TAF AMD
KBJC 291907Z 2919/3018 13006KT P6SM BKN060 BKN120
     FM292000 02008KT P6SM VCSH SCT030 BKN070 BKN120
      TEMPO 2920/2923 01012KT -TSRA BKN030CB
     FM292300 02010KT P6SM SCT030 BKN050
     FM300200 VRB05KT P6SM BKN040
     FM300600 28005KT P6SM SCT030 BKN050
     FM301500 VRB05KT P6SM FEW030 SCT050=

USA.gov is the U.S. government's official web portal to all federal, state and local government web resources and services.